Time;durP1;ratioP1;P1;durP2;ratioP2;P2;SDS_P1;SDS_P2;PMS_P1;PMS_P2;Temp;Humidity;BMP_temperature;BMP_pressure;BME280_temperature;BME280_humidity;BME280_pressure;Samples;Min_cycle;Max_cycle;Signal;HPM_P1;HPM_P2
2021/07/24 00:01:21;;;;;;;13.90;11.30;;;;;;;;;;5145972;27;38882;-78
2021/07/24 00:03:47;;;;;;;14.85;10.70;;;;;;;;;;5148997;27;38083;-78
2021/07/24 00:06:14;;;;;;;14.65;10.77;;;;;;;;;;5148857;27;38420;-76
2021/07/24 00:08:40;;;;;;;15.45;10.50;;;;;;;;;;5147569;27;37721;-76
2021/07/24 00:11:08;;;;;;;13.18;10.48;;;;;;;;;;5145179;27;40343;-78
2021/07/24 00:13:35;;;;;;;13.20;11.02;;;;;;;;;;5142459;27;38812;-79
2021/07/24 00:16:02;;;;;;;16.25;10.60;;;;;;;;;;5150858;27;37711;-76
2021/07/24 00:18:29;;;;;;;13.35;10.13;;;;;;;;;;5140126;27;47089;-76
2021/07/24 00:20:55;;;;;;;11.88;10.05;;;;;;;;;;5148109;27;41677;-76
2021/07/24 00:23:21;;;;;;;10.90;8.98;;;;;;;;;;5149934;27;37399;-76
2021/07/24 00:25:48;;;;;;;11.38;9.30;;;;;;;;;;5136524;27;37279;-77
2021/07/24 00:28:14;;;;;;;13.23;10.30;;;;;;;;;;5141392;27;40471;-76
2021/07/24 00:30:41;;;;;;;12.65;9.82;;;;;;;;;;5149640;27;38392;-77
2021/07/24 00:33:08;;;;;;;14.15;10.23;;;;;;;;;;5151770;27;37659;-77
2021/07/24 00:35:35;;;;;;;12.45;10.18;;;;;;;;;;5154587;27;37231;-77
2021/07/24 00:38:02;;;;;;;13.25;9.82;;;;;;;;;;5151913;27;38532;-75
2021/07/24 00:40:30;;;;;;;15.10;9.98;;;;;;;;;;5148398;27;39616;-77
2021/07/24 00:42:57;;;;;;;21.15;11.07;;;;;;;;;;5150083;27;36470;-76
2021/07/24 00:45:25;;;;;;;17.05;10.30;;;;;;;;;;5151589;27;36337;-77
2021/07/24 00:47:58;;;;;;;13.82;10.35;;;;;;;;;;5147362;27;39742;-76
2021/07/24 00:50:25;;;;;;;15.30;9.98;;;;;;;;;;5140641;27;39139;-77
2021/07/24 00:52:53;;;;;;;15.05;10.77;;;;;;;;;;5131424;27;39918;-76
2021/07/24 00:55:19;;;;;;;15.30;11.52;;;;;;;;;;5146148;27;37349;-77
2021/07/24 00:57:46;;;;;;;15.55;10.45;;;;;;;;;;5149288;27;38829;-76
2021/07/24 01:00:13;;;;;;;17.00;10.82;;;;;;;;;;5151260;27;38721;-77
2021/07/24 01:02:40;;;;;;;14.45;11.05;;;;;;;;;;5146351;27;38487;-80
2021/07/24 01:05:07;;;;;;;15.65;11.20;;;;;;;;;;5139688;27;36572;-76
2021/07/24 01:07:34;;;;;;;19.23;11.10;;;;;;;;;;5152639;27;39204;-76
2021/07/24 01:10:01;;;;;;;16.67;10.55;;;;;;;;;;5146152;27;38523;-77
2021/07/24 01:12:27;;;;;;;11.55;9.90;;;;;;;;;;5149604;27;38015;-77
2021/07/24 01:14:53;;;;;;;14.80;11.43;;;;;;;;;;5147583;27;37452;-76
2021/07/24 01:17:20;;;;;;;13.23;10.50;;;;;;;;;;5144417;27;39440;-76
2021/07/24 01:19:46;;;;;;;16.02;11.07;;;;;;;;;;5147442;27;38849;-76
2021/07/24 01:22:13;;;;;;;13.45;10.30;;;;;;;;;;5137348;27;38535;-76
2021/07/24 01:24:39;;;;;;;14.50;11.18;;;;;;;;;;5146671;27;35884;-77
2021/07/24 01:27:07;;;;;;;16.52;10.95;;;;;;;;;;5146698;27;39256;-76
2021/07/24 01:29:35;;;;;;;12.38;10.40;;;;;;;;;;5148606;27;39235;-76
2021/07/24 01:32:02;;;;;;;17.58;10.55;;;;;;;;;;5132167;27;38017;-76
2021/07/24 01:34:28;;;;;;;16.88;10.85;;;;;;;;;;5138694;27;37278;-77
2021/07/24 01:36:55;;;;;;;19.33;11.55;;;;;;;;;;5143771;27;38455;-76
2021/07/24 01:39:21;;;;;;;15.82;11.40;;;;;;;;;;5144047;27;39863;-77
2021/07/24 01:41:47;;;;;;;13.60;10.88;;;;;;;;;;5145726;27;37869;-76
2021/07/24 01:44:14;;;;;;;14.80;10.88;;;;;;;;;;5148594;27;37491;-76
2021/07/24 01:46:40;;;;;;;15.30;11.38;;;;;;;;;;5150450;27;38794;-76
2021/07/24 01:54:55;;;;;;;18.45;11.98;;;;;;;;;;5147954;27;49972;-76
2021/07/24 01:57:22;;;;;;;13.57;10.95;;;;;;;;;;5146270;27;39623;-75
2021/07/24 01:59:49;;;;;;;15.55;11.65;;;;;;;;;;5152402;27;38525;-76
2021/07/24 02:02:16;;;;;;;13.65;11.20;;;;;;;;;;5151141;27;37806;-76
2021/07/24 02:04:50;;;;;;;12.98;11.15;;;;;;;;;;5140554;27;38744;-77
2021/07/24 02:07:17;;;;;;;17.90;10.68;;;;;;;;;;5148061;27;39676;-76
2021/07/24 02:09:44;;;;;;;17.58;11.02;;;;;;;;;;5155198;27;39509;-76
2021/07/24 02:12:11;;;;;;;17.45;11.82;;;;;;;;;;5147741;27;38159;-76
2021/07/24 02:14:38;;;;;;;14.82;11.68;;;;;;;;;;5149469;27;36996;-76
2021/07/24 02:17:05;;;;;;;16.67;11.55;;;;;;;;;;5148572;27;38435;-76
2021/07/24 02:19:32;;;;;;;16.73;10.93;;;;;;;;;;5149304;27;37537;-76
2021/07/24 02:21:59;;;;;;;16.25;10.80;;;;;;;;;;5144674;27;38326;-76
2021/07/24 02:24:25;;;;;;;19.40;11.52;;;;;;;;;;5152363;27;36040;-76
2021/07/24 02:26:52;;;;;;;17.15;12.73;;;;;;;;;;5156565;27;38786;-77
2021/07/24 02:29:18;;;;;;;15.25;11.93;;;;;;;;;;5149387;27;37487;-76
2021/07/24 02:31:45;;;;;;;14.93;11.55;;;;;;;;;;5150801;27;37582;-76
2021/07/24 02:34:11;;;;;;;14.90;11.93;;;;;;;;;;5143711;27;36395;-77
2021/07/24 02:36:38;;;;;;;16.23;11.82;;;;;;;;;;5147318;27;37435;-77
2021/07/24 02:39:04;;;;;;;15.60;12.40;;;;;;;;;;5153691;27;36991;-76
2021/07/24 02:41:30;;;;;;;18.27;12.57;;;;;;;;;;5147938;27;36154;-76
2021/07/24 02:43:57;;;;;;;15.32;12.35;;;;;;;;;;5149330;27;37343;-76
2021/07/24 02:46:23;;;;;;;17.38;12.88;;;;;;;;;;5142059;27;39185;-77
2021/07/24 02:48:49;;;;;;;16.67;11.63;;;;;;;;;;5146384;27;39114;-77
2021/07/24 02:51:16;;;;;;;16.05;12.48;;;;;;;;;;5149671;27;36428;-76
2021/07/24 02:53:43;;;;;;;16.75;12.88;;;;;;;;;;5149120;27;37745;-76
2021/07/24 02:56:09;;;;;;;17.50;13.40;;;;;;;;;;5153401;27;38790;-76
2021/07/24 02:58:35;;;;;;;16.88;12.88;;;;;;;;;;5148394;27;39695;-75
2021/07/24 03:01:08;;;;;;;18.05;13.50;;;;;;;;;;5149967;27;38771;-76
2021/07/24 03:03:35;;;;;;;17.70;12.25;;;;;;;;;;5150129;27;36593;-77
2021/07/24 03:06:02;;;;;;;18.92;14.10;;;;;;;;;;5151413;27;40650;-76
2021/07/24 03:08:28;;;;;;;15.45;11.90;;;;;;;;;;5141686;27;47440;-76
2021/07/24 03:10:55;;;;;;;17.75;12.38;;;;;;;;;;5136684;27;37528;-77
2021/07/24 03:13:21;;;;;;;20.13;13.63;;;;;;;;;;5141618;27;35987;-76
2021/07/24 03:15:48;;;;;;;17.50;12.32;;;;;;;;;;5150087;27;39839;-76
2021/07/24 03:18:14;;;;;;;18.10;13.93;;;;;;;;;;5152988;27;38814;-76
2021/07/24 03:20:40;;;;;;;17.40;13.00;;;;;;;;;;5145812;27;38942;-76
2021/07/24 03:23:07;;;;;;;22.85;14.30;;;;;;;;;;5151073;27;37900;-76
2021/07/24 03:25:33;;;;;;;18.13;13.60;;;;;;;;;;5150757;27;39578;-77
2021/07/24 03:28:00;;;;;;;17.42;13.60;;;;;;;;;;5153473;27;38963;-77
2021/07/24 03:30:26;;;;;;;16.05;12.57;;;;;;;;;;5147839;27;38993;-77
2021/07/24 03:32:53;;;;;;;20.90;13.52;;;;;;;;;;5154093;27;37212;-77
2021/07/24 03:35:19;;;;;;;19.23;13.25;;;;;;;;;;5156929;27;40223;-76
2021/07/24 03:37:45;;;;;;;20.20;13.70;;;;;;;;;;5147623;27;38961;-77
2021/07/24 03:40:12;;;;;;;16.60;12.68;;;;;;;;;;5150859;27;37863;-76
2021/07/24 03:42:39;;;;;;;19.60;13.52;;;;;;;;;;5150573;27;37218;-76
2021/07/24 03:45:06;;;;;;;18.67;14.27;;;;;;;;;;5153357;27;40610;-76
2021/07/24 03:47:33;;;;;;;19.55;14.18;;;;;;;;;;5146958;27;38608;-76
2021/07/24 03:49:59;;;;;;;20.45;14.40;;;;;;;;;;5135218;27;37867;-76
2021/07/24 03:52:25;;;;;;;18.73;14.40;;;;;;;;;;5156013;27;39175;-76
2021/07/24 03:54:52;;;;;;;18.30;13.82;;;;;;;;;;5159995;27;38240;-76
2021/07/24 03:57:18;;;;;;;20.00;13.25;;;;;;;;;;5156087;27;38943;-78
2021/07/24 03:59:44;;;;;;;17.75;13.25;;;;;;;;;;5151081;27;38174;-77
2021/07/24 04:02:18;;;;;;;18.83;13.48;;;;;;;;;;5149655;27;37726;-76
2021/07/24 04:04:50;;;;;;;17.60;13.18;;;;;;;;;;5156601;27;39658;-77
2021/07/24 04:07:17;;;;;;;22.15;14.45;;;;;;;;;;5151540;27;38553;-77
2021/07/24 04:09:43;;;;;;;18.00;13.63;;;;;;;;;;5157457;27;38260;-77
2021/07/24 04:12:10;;;;;;;20.63;14.00;;;;;;;;;;5150524;27;37399;-77
2021/07/24 04:14:37;;;;;;;18.80;13.82;;;;;;;;;;5142052;27;39319;-77
2021/07/24 04:17:03;;;;;;;17.80;14.30;;;;;;;;;;5143144;27;39178;-77
2021/07/24 04:19:30;;;;;;;18.38;12.80;;;;;;;;;;5153557;27;37475;-78
2021/07/24 04:21:57;;;;;;;18.70;12.80;;;;;;;;;;5151304;27;37776;-76
2021/07/24 04:24:23;;;;;;;20.52;14.18;;;;;;;;;;5156175;27;38717;-77
2021/07/24 04:26:50;;;;;;;17.90;13.82;;;;;;;;;;5149541;27;38746;-77
2021/07/24 04:29:16;;;;;;;19.83;13.38;;;;;;;;;;5148209;27;38449;-77
2021/07/24 04:31:43;;;;;;;17.13;12.82;;;;;;;;;;5154116;27;37382;-77
2021/07/24 04:34:09;;;;;;;19.17;13.07;;;;;;;;;;5151209;27;38283;-77
2021/07/24 04:36:35;;;;;;;17.35;13.00;;;;;;;;;;5150371;27;39544;-77
2021/07/24 04:39:02;;;;;;;17.08;12.93;;;;;;;;;;5150047;27;39687;-76
2021/07/24 04:41:28;;;;;;;19.00;13.77;;;;;;;;;;5141070;27;38767;-77
2021/07/24 04:43:55;;;;;;;17.95;13.68;;;;;;;;;;5144564;27;39275;-77
2021/07/24 04:46:21;;;;;;;19.08;13.00;;;;;;;;;;5151168;27;39584;-77
2021/07/24 04:48:47;;;;;;;19.88;13.38;;;;;;;;;;5145272;27;38017;-78
2021/07/24 04:51:15;;;;;;;17.52;12.57;;;;;;;;;;5149178;27;37313;-77
2021/07/24 04:53:43;;;;;;;17.25;13.32;;;;;;;;;;5147242;27;40258;-77
2021/07/24 04:56:09;;;;;;;16.70;12.38;;;;;;;;;;5142431;27;38896;-77
2021/07/24 04:58:36;;;;;;;22.48;13.20;;;;;;;;;;5150191;27;38415;-77
2021/07/24 05:01:02;;;;;;;14.70;12.23;;;;;;;;;;5152176;27;38371;-77
2021/07/24 05:03:29;;;;;;;27.00;13.57;;;;;;;;;;5146991;27;41903;-77
2021/07/24 05:05:55;;;;;;;16.60;13.02;;;;;;;;;;5149273;27;37813;-77
2021/07/24 05:08:22;;;;;;;20.65;12.40;;;;;;;;;;5153902;27;38151;-77
2021/07/24 05:10:48;;;;;;;21.38;13.90;;;;;;;;;;5149635;27;37827;-77
2021/07/24 05:13:15;;;;;;;16.30;12.15;;;;;;;;;;5147996;27;39266;-77
2021/07/24 05:15:41;;;;;;;19.73;12.43;;;;;;;;;;5141890;27;37498;-77
2021/07/24 05:18:08;;;;;;;17.13;12.52;;;;;;;;;;5146946;27;38670;-76
2021/07/24 05:20:35;;;;;;;17.75;12.50;;;;;;;;;;5153199;27;37034;-76
2021/07/24 05:23:02;;;;;;;16.98;11.40;;;;;;;;;;5155274;27;37104;-76
2021/07/24 05:25:28;;;;;;;18.90;12.65;;;;;;;;;;5148386;27;39429;-77
2021/07/24 05:27:54;;;;;;;16.77;12.27;;;;;;;;;;5149971;27;38397;-77
2021/07/24 05:30:21;;;;;;;17.92;12.50;;;;;;;;;;5145524;27;36291;-77
2021/07/24 05:32:47;;;;;;;16.75;12.63;;;;;;;;;;5151328;27;38626;-77
2021/07/24 05:35:13;;;;;;;18.00;13.18;;;;;;;;;;5152002;27;37546;-77
2021/07/24 05:37:40;;;;;;;17.48;12.90;;;;;;;;;;5150890;27;39228;-77
2021/07/24 05:40:07;;;;;;;17.17;12.52;;;;;;;;;;5139846;27;37598;-77
2021/07/24 05:42:33;;;;;;;17.42;12.20;;;;;;;;;;5144102;27;37699;-77
2021/07/24 05:44:59;;;;;;;17.65;12.68;;;;;;;;;;5145940;27;38712;-76
2021/07/24 05:47:26;;;;;;;16.85;12.93;;;;;;;;;;5144899;27;38402;-76
2021/07/24 05:49:52;;;;;;;15.63;12.40;;;;;;;;;;5141686;27;37442;-76
2021/07/24 05:52:18;;;;;;;18.30;13.02;;;;;;;;;;5140746;27;39776;-76
2021/07/24 05:54:45;;;;;;;17.90;12.23;;;;;;;;;;5153566;27;38174;-76
2021/07/24 05:57:11;;;;;;;17.90;13.18;;;;;;;;;;5144815;27;39583;-76
2021/07/24 05:59:38;;;;;;;17.63;12.43;;;;;;;;;;5148797;27;37442;-75
2021/07/24 06:02:05;;;;;;;16.98;12.43;;;;;;;;;;5151188;27;36666;-76
2021/07/24 06:04:32;;;;;;;15.82;12.25;;;;;;;;;;5153872;27;38721;-76
2021/07/24 06:06:59;;;;;;;16.13;12.60;;;;;;;;;;5151434;27;37973;-76
2021/07/24 06:09:26;;;;;;;18.65;12.43;;;;;;;;;;5151354;27;36450;-77
2021/07/24 06:11:53;;;;;;;16.67;12.77;;;;;;;;;;5149216;27;38491;-76
2021/07/24 06:14:19;;;;;;;16.83;13.00;;;;;;;;;;5143699;27;39932;-76
2021/07/24 06:16:45;;;;;;;16.83;11.95;;;;;;;;;;5149687;27;39078;-76
2021/07/24 06:19:12;;;;;;;16.08;12.20;;;;;;;;;;5151144;27;38135;-77
2021/07/24 06:21:38;;;;;;;15.05;11.40;;;;;;;;;;5154313;27;39967;-75
2021/07/24 06:24:04;;;;;;;18.73;12.65;;;;;;;;;;5148196;27;39646;-76
2021/07/24 06:26:31;;;;;;;14.57;11.85;;;;;;;;;;5156937;27;37149;-76
2021/07/24 06:28:57;;;;;;;21.85;12.90;;;;;;;;;;5150709;27;37378;-76
2021/07/24 06:31:24;;;;;;;16.80;12.10;;;;;;;;;;5145871;27;39162;-76
2021/07/24 06:33:50;;;;;;;17.02;11.68;;;;;;;;;;5130939;27;41425;-76
2021/07/24 06:36:16;;;;;;;13.43;11.40;;;;;;;;;;5127093;27;39465;-77
2021/07/24 06:38:43;;;;;;;18.17;11.80;;;;;;;;;;5142820;27;39195;-76
2021/07/24 06:41:09;;;;;;;16.45;12.15;;;;;;;;;;5146028;27;37313;-78
2021/07/24 06:43:35;;;;;;;15.52;12.20;;;;;;;;;;5139993;27;37231;-77
2021/07/24 06:46:11;;;;;;;17.50;12.52;;;;;;;;;;5151659;27;40029;-77
2021/07/24 06:48:38;;;;;;;18.65;13.23;;;;;;;;;;5149171;27;36381;-77
2021/07/24 06:51:08;;;;;;;15.55;12.18;;;;;;;;;;5147840;27;38509;-77
2021/07/24 06:53:34;;;;;;;18.20;12.35;;;;;;;;;;5152197;27;39081;-77
2021/07/24 06:56:01;;;;;;;14.85;11.48;;;;;;;;;;5145779;27;37109;-77
2021/07/24 06:58:28;;;;;;;18.83;11.70;;;;;;;;;;5148391;27;49406;-77
2021/07/24 07:00:54;;;;;;;15.70;12.10;;;;;;;;;;5149571;27;38158;-77
2021/07/24 07:03:21;;;;;;;14.25;10.73;;;;;;;;;;5141640;27;41754;-77
2021/07/24 07:05:49;;;;;;;14.63;11.20;;;;;;;;;;5147466;27;37665;-77
2021/07/24 07:08:16;;;;;;;15.27;12.27;;;;;;;;;;5151828;27;38112;-77
2021/07/24 07:10:42;;;;;;;14.55;10.85;;;;;;;;;;5139367;27;39675;-78
2021/07/24 07:13:08;;;;;;;14.93;11.07;;;;;;;;;;5136161;27;38833;-77
2021/07/24 07:15:35;;;;;;;13.80;10.10;;;;;;;;;;5132565;27;39331;-77
2021/07/24 07:18:01;;;;;;;14.57;11.05;;;;;;;;;;5127924;27;36726;-77
2021/07/24 07:20:27;;;;;;;16.58;11.30;;;;;;;;;;5125480;27;48896;-77
2021/07/24 07:22:54;;;;;;;12.85;10.85;;;;;;;;;;5146670;27;38781;-77
2021/07/24 07:25:20;;;;;;;15.98;10.77;;;;;;;;;;5154722;27;38308;-78
2021/07/24 07:27:47;;;;;;;19.02;12.50;;;;;;;;;;5153145;27;37675;-77
2021/07/24 07:30:14;;;;;;;12.68;10.43;;;;;;;;;;5152175;27;38508;-77
2021/07/24 07:32:40;;;;;;;15.90;11.25;;;;;;;;;;5157479;27;37308;-77
2021/07/24 07:35:07;;;;;;;15.90;11.77;;;;;;;;;;5145460;27;37602;-77
2021/07/24 07:37:34;;;;;;;17.45;13.02;;;;;;;;;;5150850;27;38217;-78
2021/07/24 07:40:00;;;;;;;14.52;11.45;;;;;;;;;;5155361;27;39584;-80
2021/07/24 07:42:27;;;;;;;14.00;10.98;;;;;;;;;;5147707;27;37208;-78
2021/07/24 07:44:53;;;;;;;14.50;10.88;;;;;;;;;;5154636;27;37401;-80
2021/07/24 07:47:19;;;;;;;15.00;11.32;;;;;;;;;;5151703;27;37221;-78
2021/07/24 07:49:46;;;;;;;14.15;11.75;;;;;;;;;;5152616;27;39366;-78
2021/07/24 07:52:12;;;;;;;13.07;10.23;;;;;;;;;;5152392;27;39311;-78
2021/07/24 07:54:39;;;;;;;15.70;11.55;;;;;;;;;;5157773;27;38497;-79
2021/07/24 07:57:05;;;;;;;16.85;12.02;;;;;;;;;;5152378;27;38188;-77
2021/07/24 07:59:32;;;;;;;15.20;11.43;;;;;;;;;;5149550;27;38982;-78
2021/07/24 08:01:58;;;;;;;15.63;11.50;;;;;;;;;;5147225;27;39060;-78
2021/07/24 08:04:24;;;;;;;14.43;11.20;;;;;;;;;;5151025;27;39743;-77
2021/07/24 08:06:51;;;;;;;17.63;11.82;;;;;;;;;;5151919;27;37547;-77
2021/07/24 08:09:17;;;;;;;16.48;12.40;;;;;;;;;;5164837;27;39164;-78
2021/07/24 08:11:44;;;;;;;13.68;11.15;;;;;;;;;;5155810;27;38397;-77
2021/07/24 08:14:10;;;;;;;16.75;11.93;;;;;;;;;;5153759;27;38572;-78
2021/07/24 08:16:36;;;;;;;16.02;11.77;;;;;;;;;;5154167;27;37413;-78
2021/07/24 08:19:03;;;;;;;15.23;11.95;;;;;;;;;;5158034;27;39825;-78
2021/07/24 08:21:29;;;;;;;16.23;11.50;;;;;;;;;;5151280;27;38300;-79
2021/07/24 08:23:56;;;;;;;14.93;11.45;;;;;;;;;;5159961;27;37672;-79
2021/07/24 08:26:22;;;;;;;15.77;11.20;;;;;;;;;;5150237;27;37428;-79
2021/07/24 08:28:48;;;;;;;15.80;12.13;;;;;;;;;;5151816;27;39487;-79
2021/07/24 08:31:15;;;;;;;13.02;11.43;;;;;;;;;;5140837;27;38317;-78
2021/07/24 08:33:42;;;;;;;14.20;11.63;;;;;;;;;;5132691;27;39508;-79
2021/07/24 08:36:09;;;;;;;15.15;11.75;;;;;;;;;;5144442;27;37123;-78
2021/07/24 08:38:35;;;;;;;15.32;11.45;;;;;;;;;;5157293;27;39237;-78
2021/07/24 08:41:02;;;;;;;16.15;12.57;;;;;;;;;;5152331;27;39205;-78
2021/07/24 08:43:28;;;;;;;14.93;11.32;;;;;;;;;;5146089;27;48772;-78
2021/07/24 08:45:58;;;;;;;14.85;11.27;;;;;;;;;;5146268;27;37681;-78
2021/07/24 08:48:25;;;;;;;16.13;12.05;;;;;;;;;;5160291;27;39965;-78
2021/07/24 08:50:54;;;;;;;12.43;10.95;;;;;;;;;;5148461;27;39098;-79
2021/07/24 08:53:25;;;;;;;13.50;11.27;;;;;;;;;;5151810;27;39466;-78
2021/07/24 08:55:59;;;;;;;15.40;12.10;;;;;;;;;;5150168;27;38437;-77
2021/07/24 08:58:26;;;;;;;15.07;12.00;;;;;;;;;;5151438;27;39446;-78
2021/07/24 09:00:52;;;;;;;15.98;12.30;;;;;;;;;;5151492;27;39034;-78
2021/07/24 09:03:19;;;;;;;13.20;10.23;;;;;;;;;;5142566;27;38698;-78
2021/07/24 09:05:50;;;;;;;16.08;11.93;;;;;;;;;;5149276;27;37041;-78
2021/07/24 09:08:18;;;;;;;14.50;11.10;;;;;;;;;;5148132;27;39998;-78
2021/07/24 09:10:47;;;;;;;13.32;11.07;;;;;;;;;;5148230;27;38558;-78
2021/07/24 09:13:14;;;;;;;16.90;12.25;;;;;;;;;;5150881;27;38323;-78
2021/07/24 09:15:41;;;;;;;15.30;11.48;;;;;;;;;;5151481;27;37365;-80
2021/07/24 09:18:07;;;;;;;14.05;10.60;;;;;;;;;;5147398;27;39697;-78
2021/07/24 09:20:35;;;;;;;15.50;11.68;;;;;;;;;;5145366;27;38962;-78
2021/07/24 09:23:21;;;;;;;15.38;11.88;;;;;;;;;;5133724;27;37062;-78
2021/07/24 09:25:47;;;;;;;16.15;11.73;;;;;;;;;;5146018;27;47346;-78
2021/07/24 09:28:14;;;;;;;15.93;10.18;;;;;;;;;;5158195;27;39321;-78
2021/07/24 09:30:40;;;;;;;13.77;10.75;;;;;;;;;;5152630;27;38652;-79
2021/07/24 09:33:08;;;;;;;15.13;10.77;;;;;;;;;;5158423;27;38226;-78
2021/07/24 09:35:46;;;;;;;15.73;11.10;;;;;;;;;;5153536;27;37447;-78
2021/07/24 09:38:13;;;;;;;13.93;10.50;;;;;;;;;;5166029;27;40346;-78
2021/07/24 09:40:40;;;;;;;15.85;12.43;;;;;;;;;;5151480;27;39096;-79
2021/07/24 09:43:26;;;;;;;12.65;10.45;;;;;;;;;;5152214;27;38323;-79
2021/07/24 09:46:07;;;;;;;13.70;9.95;;;;;;;;;;5152181;27;37721;-80
2021/07/24 09:48:33;;;;;;;16.02;12.35;;;;;;;;;;5152060;27;48324;-80
2021/07/24 09:51:00;;;;;;;12.55;10.80;;;;;;;;;;5156074;27;40193;-78
2021/07/24 09:53:36;;;;;;;14.55;10.93;;;;;;;;;;5146617;27;38758;-77
2021/07/24 09:56:03;;;;;;;17.08;11.95;;;;;;;;;;5155589;27;36732;-78
2021/07/24 09:58:29;;;;;;;15.85;12.32;;;;;;;;;;5155301;27;39582;-78
2021/07/24 10:01:06;;;;;;;14.02;11.73;;;;;;;;;;5156664;27;38564;-78
2021/07/24 10:03:35;;;;;;;13.02;10.68;;;;;;;;;;5151717;27;48665;-78
2021/07/24 10:06:03;;;;;;;14.57;11.35;;;;;;;;;;5155093;27;37814;-78
2021/07/24 10:08:30;;;;;;;15.80;12.70;;;;;;;;;;5144912;27;47586;-76
2021/07/24 10:10:56;;;;;;;13.60;10.82;;;;;;;;;;5159681;27;38638;-76
2021/07/24 10:13:23;;;;;;;16.40;11.98;;;;;;;;;;5153603;27;40828;-77
2021/07/24 10:15:49;;;;;;;15.52;11.70;;;;;;;;;;5141457;27;37162;-77
2021/07/24 10:18:16;;;;;;;16.50;11.60;;;;;;;;;;5140496;27;37759;-78
2021/07/24 10:20:44;;;;;;;15.55;12.88;;;;;;;;;;5146812;27;38151;-78
2021/07/24 10:23:11;;;;;;;14.98;12.90;;;;;;;;;;5142072;27;36883;-78
2021/07/24 10:25:56;;;;;;;15.10;11.95;;;;;;;;;;5149395;27;37658;-78
2021/07/24 10:28:24;;;;;;;12.35;10.73;;;;;;;;;;5157685;27;40663;-78
2021/07/24 10:30:52;;;;;;;15.68;10.40;;;;;;;;;;5150951;27;39676;-77
2021/07/24 10:33:19;;;;;;;14.23;11.50;;;;;;;;;;5155054;27;39014;-78
2021/07/24 10:35:46;;;;;;;16.88;12.00;;;;;;;;;;5155825;27;37319;-78
2021/07/24 10:38:31;;;;;;;13.55;10.18;;;;;;;;;;5151151;27;39834;-78
2021/07/24 10:41:16;;;;;;;11.85;10.63;;;;;;;;;;5150198;27;38990;-78
2021/07/24 10:44:05;;;;;;;16.02;12.35;;;;;;;;;;5158545;27;48718;-77
2021/07/24 10:46:52;;;;;;;16.02;12.40;;;;;;;;;;5157232;27;48819;-78
2021/07/24 10:49:21;;;;;;;15.43;11.90;;;;;;;;;;5130230;27;37557;-78
2021/07/24 10:51:57;;;;;;;13.13;10.20;;;;;;;;;;5137875;27;38542;-75
2021/07/24 10:54:24;;;;;;;16.35;12.15;;;;;;;;;;5142426;27;37952;-77
2021/07/24 10:56:50;;;;;;;13.40;12.00;;;;;;;;;;5141412;27;36810;-76
2021/07/24 10:59:20;;;;;;;15.50;12.50;;;;;;;;;;5158701;27;39746;-76
2021/07/24 11:01:47;;;;;;;12.40;10.93;;;;;;;;;;5162860;27;38684;-76
2021/07/24 11:04:32;;;;;;;13.38;11.13;;;;;;;;;;5153729;27;38496;-78
2021/07/24 11:07:23;;;;;;;14.68;11.80;;;;;;;;;;5153815;27;37135;-78
2021/07/24 11:09:56;;;;;;;14.20;11.82;;;;;;;;;;5143864;27;48532;-78
2021/07/24 11:12:35;;;;;;;12.55;11.23;;;;;;;;;;5153623;27;38887;-77
2021/07/24 11:15:02;;;;;;;16.65;11.63;;;;;;;;;;5155481;27;38216;-76
2021/07/24 11:17:28;;;;;;;14.43;11.80;;;;;;;;;;5142231;27;37694;-76
2021/07/24 11:19:54;;;;;;;14.18;11.85;;;;;;;;;;5140390;27;39665;-78
2021/07/24 11:22:21;;;;;;;13.35;11.70;;;;;;;;;;5140017;27;38535;-77
2021/07/24 11:24:50;;;;;;;15.05;12.50;;;;;;;;;;5143553;27;38328;-74
2021/07/24 11:27:30;;;;;;;15.65;13.50;;;;;;;;;;5149444;27;36774;-77
2021/07/24 11:30:03;;;;;;;17.45;11.82;;;;;;;;;;5149034;27;39851;-78
2021/07/24 11:32:30;;;;;;;17.52;14.13;;;;;;;;;;5144074;27;38758;-78
2021/07/24 11:34:57;;;;;;;15.18;13.32;;;;;;;;;;5147550;27;38785;-78
2021/07/24 11:37:42;;;;;;;16.73;12.65;;;;;;;;;;5145063;27;37965;-78
2021/07/24 11:40:12;;;;;;;18.50;12.63;;;;;;;;;;5154521;27;40031;-78
2021/07/24 11:42:42;;;;;;;14.60;11.55;;;;;;;;;;5154813;27;39292;-78
2021/07/24 11:45:09;;;;;;;14.70;12.85;;;;;;;;;;5146443;27;37376;-78
2021/07/24 11:47:35;;;;;;;17.58;13.70;;;;;;;;;;5149332;27;38333;-78
2021/07/24 11:50:18;;;;;;;16.75;13.63;;;;;;;;;;5147905;27;39600;-78
2021/07/24 11:52:46;;;;;;;;;;;;;;;;;;5145305;27;47257;-78
2021/07/24 11:55:13;;;;;;;16.55;13.90;;;;;;;;;;5145326;27;37790;-76
2021/07/24 11:57:42;;;;;;;18.17;12.65;;;;;;;;;;5151083;27;37245;-77
2021/07/24 12:00:08;;;;;;;16.35;13.27;;;;;;;;;;5148797;27;40089;-76
2021/07/24 12:02:34;;;;;;;20.02;12.88;;;;;;;;;;5131696;27;38771;-76
2021/07/24 12:05:01;;;;;;;15.85;13.45;;;;;;;;;;5143450;27;39030;-77
2021/07/24 12:07:27;;;;;;;16.92;14.00;;;;;;;;;;5155295;27;36747;-76
2021/07/24 12:09:54;;;;;;;17.52;14.50;;;;;;;;;;5168871;27;39656;-77
2021/07/24 12:12:24;;;;;;;17.92;14.77;;;;;;;;;;5160254;27;38360;-76
2021/07/24 12:14:57;;;;;;;17.45;15.57;;;;;;;;;;5156475;27;37648;-76
2021/07/24 12:17:26;;;;;;;17.25;15.15;;;;;;;;;;5157000;27;37843;-77
2021/07/24 12:19:53;;;;;;;18.70;14.82;;;;;;;;;;5152294;27;38780;-76
2021/07/24 12:22:19;;;;;;;20.27;15.90;;;;;;;;;;5158512;27;38609;-77
2021/07/24 12:24:46;;;;;;;18.63;15.30;;;;;;;;;;5163934;27;37947;-77
2021/07/24 12:27:14;;;;;;;20.85;15.10;;;;;;;;;;5154885;27;37479;-76
2021/07/24 12:30:07;;;;;;;17.45;15.52;;;;;;;;;;5154192;27;37953;-76
2021/07/24 12:32:40;;;;;;;19.13;14.73;;;;;;;;;;5129308;27;46906;-76
2021/07/24 12:35:16;;;;;;;18.80;14.80;;;;;;;;;;5165084;27;38272;-76
2021/07/24 12:37:43;;;;;;;18.83;14.60;;;;;;;;;;5155913;27;38245;-76
2021/07/24 12:40:14;;;;;;;18.33;14.75;;;;;;;;;;5152225;27;39940;-76
2021/07/24 12:42:40;;;;;;;20.25;15.80;;;;;;;;;;5148809;27;40301;-76
2021/07/24 12:45:07;;;;;;;19.05;14.60;;;;;;;;;;5145590;27;38123;-76
2021/07/24 12:47:38;;;;;;;17.52;14.13;;;;;;;;;;5156802;27;38200;-76
2021/07/24 12:50:14;;;;;;;18.60;13.00;;;;;;;;;;5156911;27;39089;-76
2021/07/24 12:52:44;;;;;;;17.50;14.13;;;;;;;;;;5149675;27;48649;-76
2021/07/24 12:55:11;;;;;;;20.73;15.88;;;;;;;;;;5161433;27;39012;-76
2021/07/24 12:57:38;;;;;;;15.98;13.73;;;;;;;;;;5144603;27;37341;-76
2021/07/24 13:00:09;;;;;;;16.88;14.77;;;;;;;;;;5140306;27;38854;-76
2021/07/24 13:02:35;;;;;;;26.65;17.23;;;;;;;;;;5148137;27;49010;-76
2021/07/24 13:05:02;;;;;;;19.75;14.75;;;;;;;;;;5149442;27;39730;-75
2021/07/24 13:07:29;;;;;;;16.80;14.77;;;;;;;;;;5147386;27;48550;-74
2021/07/24 13:09:59;;;;;;;18.88;15.27;;;;;;;;;;5154152;27;39148;-75
2021/07/24 13:12:26;;;;;;;19.85;16.70;;;;;;;;;;5152783;27;38183;-77
2021/07/24 13:14:53;;;;;;;22.45;16.77;;;;;;;;;;5162792;27;38357;-76
2021/07/24 13:17:19;;;;;;;26.58;18.75;;;;;;;;;;5155680;27;38643;-76
2021/07/24 13:19:45;;;;;;;29.33;20.40;;;;;;;;;;5150148;27;37723;-77
2021/07/24 13:22:12;;;;;;;32.13;24.20;;;;;;;;;;5137151;27;39266;-77
2021/07/24 13:24:39;;;;;;;35.30;25.55;;;;;;;;;;5137445;27;39386;-77
2021/07/24 13:29:51;;;;;;;36.67;26.20;;;;;;;;;;5156738;27;39111;-77
2021/07/24 13:32:18;;;;;;;39.70;28.50;;;;;;;;;;5154182;27;38450;-79
2021/07/24 13:34:44;;;;;;;39.33;27.00;;;;;;;;;;5159591;27;38655;-78
2021/07/24 13:37:14;;;;;;;35.00;26.70;;;;;;;;;;5146476;27;37227;-80
2021/07/24 13:39:41;;;;;;;43.15;31.30;;;;;;;;;;5148871;27;39010;-80
2021/07/24 13:42:08;;;;;;;37.53;29.10;;;;;;;;;;5165470;27;39385;-79
2021/07/24 13:44:34;;;;;;;42.80;30.98;;;;;;;;;;5149261;27;39484;-79
2021/07/24 13:47:00;;;;;;;47.28;33.53;;;;;;;;;;5154770;27;36878;-79
2021/07/24 13:49:27;;;;;;;50.30;37.63;;;;;;;;;;5157357;27;41541;-80
2021/07/24 13:51:53;;;;;;;56.58;38.97;;;;;;;;;;5146513;27;38145;-79
2021/07/24 13:54:19;;;;;;;59.80;40.40;;;;;;;;;;5153616;27;39052;-79
2021/07/24 13:56:46;;;;;;;67.32;45.70;;;;;;;;;;5153482;27;37964;-81
2021/07/24 13:59:12;;;;;;;77.68;46.97;;;;;;;;;;5155873;27;39564;-80
2021/07/24 14:01:38;;;;;;;66.40;44.83;;;;;;;;;;5145440;27;38682;-81
2021/07/24 14:04:05;;;;;;;68.70;42.75;;;;;;;;;;5152626;27;38432;-83
2021/07/24 14:06:34;;;;;;;68.22;43.80;;;;;;;;;;5161393;27;37363;-80
2021/07/24 14:09:00;;;;;;;66.72;45.30;;;;;;;;;;5144902;27;39396;-80
2021/07/24 14:11:26;;;;;;;84.35;54.15;;;;;;;;;;5138582;27;39559;-82
2021/07/24 14:13:53;;;;;;;88.28;53.47;;;;;;;;;;5142791;27;38162;-81
2021/07/24 14:16:23;;;;;;;69.38;46.42;;;;;;;;;;5154159;27;37167;-79
2021/07/24 14:18:50;;;;;;;85.28;53.08;;;;;;;;;;5152914;27;39067;-80
2021/07/24 14:21:20;;;;;;;87.43;55.20;;;;;;;;;;5148445;27;39115;-82
2021/07/24 14:23:47;;;;;;;90.28;54.63;;;;;;;;;;5153001;27;38398;-81
2021/07/24 14:26:14;;;;;;;83.07;53.08;;;;;;;;;;5134329;27;37710;-80
2021/07/24 14:28:40;;;;;;;79.53;52.03;;;;;;;;;;5139845;27;39102;-80
2021/07/24 14:31:08;;;;;;;89.18;55.92;;;;;;;;;;5135276;27;38495;-80